Time,TemperatureF,DewpointF,PressureIn,WindDirection,WindDirectionDegrees,WindSpeedMPH,WindSpeedGustMPH,Humidity,HourlyPrecipIn,Conditions,Clouds,dailyrainin,SoftwareType,DateUTC
2013-08-08 00:05:00,58.0,57.2,30.04,SSW,207,0.0,9.0,97,0.00,,,0.00,Wunderground v.1.15,2013-08-08 07:05:00,
2013-08-08 00:15:00,58.0,57.2,30.04,SSW,207,0.0,0.0,97,0.00,,,0.00,Wunderground v.1.15,2013-08-08 07:15:00,
2013-08-08 00:20:00,58.0,57.2,30.04,SSW,207,1.0,2.0,97,0.00,,,0.00,Wunderground v.1.15,2013-08-08 07:20:00,
2013-08-08 00:30:00,58.0,57.2,30.03,SSW,207,1.0,1.0,97,0.00,,,0.00,Wunderground v.1.15,2013-08-08 07:30:00,
2013-08-08 00:35:00,58.0,57.2,30.03,SSW,207,0.0,1.0,97,0.00,,,0.00,Wunderground v.1.15,2013-08-08 07:35:00,
2013-08-08 00:40:00,57.9,57.1,30.03,SSW,207,0.0,0.0,97,0.00,,,0.00,Wunderground v.1.15,2013-08-08 07:40:00,
2013-08-08 00:45:00,57.8,57.0,30.03,SSW,207,0.0,0.0,97,0.00,,,0.00,Wunderground v.1.15,2013-08-08 07:45:00,
2013-08-08 00:50:00,57.8,56.7,30.03,SSW,207,0.0,0.0,96,0.00,,,0.00,Wunderground v.1.15,2013-08-08 07:50:00,
2013-08-08 01:00:00,57.8,57.0,30.03,WSW,255,0.0,0.0,97,0.00,,,0.00,Wunderground v.1.15,2013-08-08 08:00:00,
2013-08-08 01:05:00,57.7,56.6,30.03,West,261,0.0,4.0,96,0.00,,,0.00,Wunderground v.1.15,2013-08-08 08:05:00,
2013-08-08 01:10:00,57.7,56.6,30.03,West,261,0.0,4.0,96,0.00,,,0.00,Wunderground v.1.15,2013-08-08 08:10:00,
2013-08-08 01:15:00,57.6,56.5,30.02,West,261,0.0,4.0,96,0.00,,,0.00,Wunderground v.1.15,2013-08-08 08:15:00,
2013-08-08 01:20:00,57.6,56.5,30.02,West,261,0.0,4.0,96,0.00,,,0.00,Wunderground v.1.15,2013-08-08 08:20:00,
2013-08-08 01:30:00,57.6,56.5,30.02,West,261,0.0,4.0,96,0.00,,,0.00,Wunderground v.1.15,2013-08-08 08:30:00,
2013-08-08 01:35:00,57.6,56.5,30.02,West,261,0.0,4.0,96,0.00,,,0.00,Wunderground v.1.15,2013-08-08 08:35:00,
2013-08-08 01:40:00,57.5,56.4,30.02,West,261,0.0,4.0,96,0.00,,,0.00,Wunderground v.1.15,2013-08-08 08:40:00,
2013-08-08 01:45:00,57.5,56.4,30.02,West,261,0.0,4.0,96,0.00,,,0.00,Wunderground v.1.15,2013-08-08 08:45:00,
2013-08-08 01:50:00,57.6,56.5,30.01,West,261,0.0,4.0,96,0.00,,,0.00,Wunderground v.1.15,2013-08-08 08:50:00,
2013-08-08 02:00:00,57.4,56.3,30.02,West,261,1.0,1.0,96,0.00,,,0.00,Wunderground v.1.15,2013-08-08 09:00:00,
2013-08-08 02:05:00,57.4,56.3,30.01,West,261,1.0,4.0,96,0.00,,,0.00,Wunderground v.1.15,2013-08-08 09:05:00,
2013-08-08 02:10:00,57.5,56.4,30.01,West,261,0.0,4.0,96,0.00,,,0.00,Wunderground v.1.15,2013-08-08 09:10:00,
2013-08-08 02:15:00,57.4,56.3,30.01,West,261,0.0,4.0,96,0.00,,,0.00,Wunderground v.1.15,2013-08-08 09:15:00,
2013-08-08 02:25:00,57.4,56.0,30.01,WSW,256,0.0,4.0,95,0.00,,,0.00,Wunderground v.1.15,2013-08-08 09:25:00,
2013-08-08 02:30:00,57.3,55.9,30.01,WSW,256,0.0,4.0,95,0.00,,,0.00,Wunderground v.1.15,2013-08-08 09:30:00,
2013-08-08 02:35:00,57.3,55.9,30.01,WSW,257,0.0,4.0,95,0.00,,,0.00,Wunderground v.1.15,2013-08-08 09:35:00,
2013-08-08 02:40:00,57.3,56.2,30.01,WSW,257,0.0,4.0,96,0.00,,,0.00,Wunderground v.1.15,2013-08-08 09:40:00,
2013-08-08 02:45:00,57.3,56.2,30.01,WSW,257,0.0,4.0,96,0.00,,,0.00,Wunderground v.1.15,2013-08-08 09:45:00,
2013-08-08 02:55:00,57.0,55.6,30.01,WSW,257,0.0,4.0,95,0.00,,,0.00,Wunderground v.1.15,2013-08-08 09:55:00,
2013-08-08 03:00:00,56.9,55.5,30.01,WSW,257,0.0,4.0,95,0.00,,,0.00,Wunderground v.1.15,2013-08-08 10:00:00,
2013-08-08 03:05:00,56.9,55.5,30.01,WSW,257,0.0,4.0,95,0.00,,,0.00,Wunderground v.1.15,2013-08-08 10:05:00,
2013-08-08 03:10:00,56.8,55.4,30.00,WSW,257,0.0,4.0,95,0.00,,,0.00,Wunderground v.1.15,2013-08-08 10:10:00,
2013-08-08 03:15:00,56.8,55.4,30.01,WSW,257,0.0,4.0,95,0.00,,,0.00,Wunderground v.1.15,2013-08-08 10:15:00,
2013-08-08 03:25:00,56.8,55.7,30.00,WSW,253,1.0,4.0,96,0.00,,,0.00,Wunderground v.1.15,2013-08-08 10:25:00,
2013-08-08 03:30:00,56.8,55.7,30.00,WSW,253,0.0,4.0,96,0.00,,,0.00,Wunderground v.1.15,2013-08-08 10:30:00,
2013-08-08 03:35:00,56.8,55.7,30.00,WSW,253,0.0,4.0,96,0.00,,,0.00,Wunderground v.1.15,2013-08-08 10:35:00,
2013-08-08 03:40:00,56.7,55.3,30.00,WSW,253,0.0,4.0,95,0.00,,,0.00,Wunderground v.1.15,2013-08-08 10:40:00,
2013-08-08 03:50:00,56.6,55.2,30.00,WSW,253,1.0,1.0,95,0.00,,,0.00,Wunderground v.1.15,2013-08-08 10:50:00,
2013-08-08 03:55:00,56.6,55.2,30.00,WSW,253,0.0,4.0,95,0.00,,,0.00,Wunderground v.1.15,2013-08-08 10:55:00,
2013-08-08 04:00:00,56.6,55.2,29.99,WSW,253,0.0,4.0,95,0.00,,,0.00,Wunderground v.1.15,2013-08-08 11:00:00,
2013-08-08 04:05:00,56.6,55.2,30.00,WSW,253,0.0,4.0,95,0.00,,,0.00,Wunderground v.1.15,2013-08-08 11:05:00,
2013-08-08 04:15:00,56.5,55.1,30.00,WSW,253,0.0,4.0,95,0.00,,,0.00,Wunderground v.1.15,2013-08-08 11:15:00,
2013-08-08 04:20:00,56.4,55.0,30.00,WSW,253,0.0,4.0,95,0.00,,,0.00,Wunderground v.1.15,2013-08-08 11:20:00,
2013-08-08 04:25:00,56.4,55.0,30.00,WSW,253,0.0,4.0,95,0.00,,,0.00,Wunderground v.1.15,2013-08-08 11:25:00,
2013-08-08 04:30:00,56.4,55.3,30.00,WSW,253,0.0,4.0,96,0.00,,,0.00,Wunderground v.1.15,2013-08-08 11:30:00,
2013-08-08 04:35:00,56.4,55.3,30.00,WSW,253,0.0,4.0,96,0.00,,,0.00,Wunderground v.1.15,2013-08-08 11:35:00,
2013-08-08 04:45:00,56.3,55.5,30.00,WSW,253,0.0,4.0,97,0.00,,,0.00,Wunderground v.1.15,2013-08-08 11:45:00,
2013-08-08 04:50:00,56.2,55.4,30.00,WSW,253,1.0,4.0,97,0.00,,,0.00,Wunderground v.1.15,2013-08-08 11:50:00,
2013-08-08 04:55:00,55.9,54.8,30.00,WSW,253,2.0,4.0,96,0.00,,,0.00,Wunderground v.1.15,2013-08-08 11:55:00,
2013-08-08 05:00:00,55.7,54.9,30.00,WSW,253,2.0,2.0,97,0.00,,,0.00,Wunderground v.1.15,2013-08-08 12:00:00,
2013-08-08 05:05:00,55.6,54.8,29.99,WSW,253,1.0,4.0,97,0.00,,,0.00,Wunderground v.1.15,2013-08-08 12:05:00,
2013-08-08 05:15:00,55.6,54.8,30.00,WSW,253,0.0,4.0,97,0.00,,,0.00,Wunderground v.1.15,2013-08-08 12:15:00,
2013-08-08 05:20:00,55.6,54.8,30.00,WSW,253,0.0,4.0,97,0.00,,,0.00,Wunderground v.1.15,2013-08-08 12:20:00,
2013-08-08 05:25:00,55.5,54.7,30.00,WSW,253,0.0,4.0,97,0.00,,,0.00,Wunderground v.1.15,2013-08-08 12:25:00,
2013-08-08 05:30:00,55.4,54.6,30.00,WSW,253,0.0,4.0,97,0.00,,,0.00,Wunderground v.1.15,2013-08-08 12:30:00,
2013-08-08 05:35:00,55.4,54.6,30.00,WSW,253,0.0,4.0,97,0.00,,,0.00,Wunderground v.1.15,2013-08-08 12:35:00,
2013-08-08 05:45:00,55.5,54.7,30.00,WSW,253,2.0,4.0,97,0.00,,,0.00,Wunderground v.1.15,2013-08-08 12:45:00,
2013-08-08 05:50:00,55.5,54.7,30.00,WSW,253,2.0,4.0,97,0.00,,,0.00,Wunderground v.1.15,2013-08-08 12:50:00,
2013-08-08 05:55:00,55.6,54.8,30.00,WSW,253,1.0,4.0,97,0.00,,,0.00,Wunderground v.1.15,2013-08-08 12:55:00,
2013-08-08 06:00:00,55.6,54.8,30.00,WSW,253,1.0,4.0,97,0.00,,,0.00,Wunderground v.1.15,2013-08-08 13:00:00,
2013-08-08 06:05:00,55.7,54.9,30.00,WSW,253,1.0,4.0,97,0.00,,,0.00,Wunderground v.1.15,2013-08-08 13:05:00,
2013-08-08 06:15:00,55.7,54.9,30.01,WSW,253,1.0,4.0,97,0.00,,,0.00,Wunderground v.1.15,2013-08-08 13:15:00,
2013-08-08 06:20:00,55.7,54.9,30.01,WSW,253,0.0,4.0,97,0.00,,,0.00,Wunderground v.1.15,2013-08-08 13:20:00,
2013-08-08 06:25:00,55.7,54.9,30.01,WSW,253,0.0,4.0,97,0.00,,,0.00,Wunderground v.1.15,2013-08-08 13:25:00,
2013-08-08 06:30:00,55.7,54.9,30.01,WSW,253,0.0,4.0,97,0.00,,,0.00,Wunderground v.1.15,2013-08-08 13:30:00,
2013-08-08 06:35:00,55.7,54.9,30.01,WSW,253,0.0,4.0,97,0.00,,,0.00,Wunderground v.1.15,2013-08-08 13:35:00,
2013-08-08 06:45:00,55.6,54.8,30.01,WSW,253,0.0,4.0,97,0.00,,,0.00,Wunderground v.1.15,2013-08-08 13:45:00,
2013-08-08 06:50:00,55.6,54.8,30.01,WSW,253,1.0,4.0,97,0.00,,,0.00,Wunderground v.1.15,2013-08-08 13:50:00,
2013-08-08 06:55:00,55.6,54.8,30.01,WSW,253,2.0,4.0,97,0.00,,,0.00,Wunderground v.1.15,2013-08-08 13:55:00,
2013-08-08 07:00:00,55.5,54.7,30.01,WSW,254,2.0,4.0,97,0.00,,,0.00,Wunderground v.1.15,2013-08-08 14:00:00,
2013-08-08 07:05:00,55.6,54.8,30.01,WSW,254,3.0,4.0,97,0.00,,,0.00,Wunderground v.1.15,2013-08-08 14:05:00,
2013-08-08 07:10:00,55.7,54.9,30.01,WSW,255,2.0,2.0,97,0.00,,,0.00,Wunderground v.1.15,2013-08-08 14:10:00,
2013-08-08 07:20:00,55.9,55.1,30.01,WSW,254,1.0,4.0,97,0.00,,,0.00,Wunderground v.1.15,2013-08-08 14:20:00,
2013-08-08 07:25:00,55.9,55.1,30.01,WSW,254,1.0,4.0,97,0.00,,,0.00,Wunderground v.1.15,2013-08-08 14:25:00,
2013-08-08 07:30:00,55.9,55.1,30.01,WSW,254,0.0,4.0,97,0.00,,,0.00,Wunderground v.1.15,2013-08-08 14:30:00,
2013-08-08 07:40:00,56.1,55.0,30.01,WSW,254,0.0,4.0,96,0.00,,,0.00,Wunderground v.1.15,2013-08-08 14:40:00,
2013-08-08 07:45:00,56.1,55.0,30.01,WSW,254,0.0,4.0,96,0.00,,,0.00,Wunderground v.1.15,2013-08-08 14:45:00,
2013-08-08 07:50:00,56.4,55.0,30.01,WNW,285,0.0,4.0,95,0.00,,,0.00,Wunderground v.1.15,2013-08-08 14:50:00,
2013-08-08 07:55:00,56.8,55.4,30.01,WNW,285,1.0,4.0,95,0.00,,,0.00,Wunderground v.1.15,2013-08-08 14:55:00,
2013-08-08 08:00:00,57.2,55.8,30.01,WNW,285,2.0,4.0,95,0.00,,,0.00,Wunderground v.1.15,2013-08-08 15:00:00,
2013-08-08 08:10:00,57.3,55.3,30.01,WNW,284,1.0,4.0,93,0.00,,,0.00,Wunderground v.1.15,2013-08-08 15:10:00,
2013-08-08 08:15:00,57.4,55.4,30.01,WNW,283,1.0,4.0,93,0.00,,,0.00,Wunderground v.1.15,2013-08-08 15:15:00,
2013-08-08 08:20:00,57.5,55.2,30.01,WNW,282,2.0,2.0,92,0.00,,,0.00,Wunderground v.1.15,2013-08-08 15:20:00,
2013-08-08 08:25:00,57.5,55.5,30.01,SSW,208,1.0,4.0,93,0.00,,,0.00,Wunderground v.1.15,2013-08-08 15:25:00,
2013-08-08 08:30:00,57.5,55.5,30.01,SSW,209,1.0,4.0,93,0.00,,,0.00,Wunderground v.1.15,2013-08-08 15:30:00,
2013-08-08 08:40:00,58.1,56.1,30.01,WNW,288,1.0,1.0,93,0.00,,,0.00,Wunderground v.1.15,2013-08-08 15:40:00,
2013-08-08 08:45:00,58.3,56.3,30.02,WNW,286,1.0,4.0,93,0.00,,,0.00,Wunderground v.1.15,2013-08-08 15:45:00,
2013-08-08 08:50:00,58.2,55.9,30.01,SW,232,1.0,1.0,92,0.00,,,0.00,Wunderground v.1.15,2013-08-08 15:50:00,
2013-08-08 08:55:00,58.0,55.7,30.01,SW,232,1.0,4.0,92,0.00,,,0.00,Wunderground v.1.15,2013-08-08 15:55:00,
2013-08-08 09:00:00,58.0,56.0,30.01,SW,225,1.0,1.0,93,0.00,,,0.00,Wunderground v.1.15,2013-08-08 16:00:00,
2013-08-08 09:05:00,58.0,56.0,30.01,SW,225,1.0,4.0,93,0.00,,,0.01,Wunderground v.1.15,2013-08-08 16:05:00,
2013-08-08 09:15:00,58.2,55.9,30.01,SW,233,0.0,4.0,92,0.00,,,0.01,Wunderground v.1.15,2013-08-08 16:15:00,
2013-08-08 09:20:00,58.4,56.1,30.01,SW,234,0.0,4.0,92,0.00,,,0.01,Wunderground v.1.15,2013-08-08 16:20:00,
2013-08-08 09:25:00,58.7,56.4,30.01,SW,234,0.0,4.0,92,0.00,,,0.01,Wunderground v.1.15,2013-08-08 16:25:00,
2013-08-08 09:30:00,58.7,55.8,30.01,SW,234,0.0,4.0,90,0.00,,,0.01,Wunderground v.1.15,2013-08-08 16:30:00,
2013-08-08 09:40:00,58.9,56.6,30.01,SW,233,1.0,4.0,92,0.00,,,0.01,Wunderground v.1.15,2013-08-08 16:40:00,
2013-08-08 09:45:00,58.9,56.6,30.01,SW,233,1.0,4.0,92,0.00,,,0.01,Wunderground v.1.15,2013-08-08 16:45:00,
2013-08-08 09:50:00,59.0,56.4,30.01,SW,233,0.0,4.0,91,0.00,,,0.01,Wunderground v.1.15,2013-08-08 16:50:00,
2013-08-08 09:55:00,59.3,56.7,30.02,SW,233,0.0,4.0,91,0.00,,,0.01,Wunderground v.1.15,2013-08-08 16:55:00,
2013-08-08 10:05:00,59.7,56.5,30.02,SW,233,2.0,5.0,89,0.00,,,0.01,Wunderground v.1.15,2013-08-08 17:05:00,
2013-08-08 10:10:00,60.0,56.4,30.02,SW,233,1.0,1.0,88,0.00,,,0.01,Wunderground v.1.15,2013-08-08 17:10:00,
2013-08-08 10:15:00,60.3,56.4,30.02,SW,232,1.0,2.0,87,0.00,,,0.01,Wunderground v.1.15,2013-08-08 17:15:00,
2013-08-08 10:20:00,60.4,56.5,30.02,SW,221,2.0,4.0,87,0.00,,,0.01,Wunderground v.1.15,2013-08-08 17:20:00,
2013-08-08 10:25:00,60.6,56.7,30.02,SW,221,3.0,4.0,87,0.00,,,0.01,Wunderground v.1.15,2013-08-08 17:25:00,
2013-08-08 10:35:00,61.6,57.4,30.02,SW,221,0.0,2.0,86,0.00,,,0.01,Wunderground v.1.15,2013-08-08 17:35:00,
2013-08-08 10:40:00,61.4,56.8,30.02,SW,223,2.0,4.0,85,0.00,,,0.01,Wunderground v.1.15,2013-08-08 17:40:00,
2013-08-08 10:45:00,60.9,56.7,30.02,SW,224,3.0,4.0,86,0.00,,,0.01,Wunderground v.1.15,2013-08-08 17:45:00,
2013-08-08 10:50:00,60.9,56.7,30.02,SW,224,1.0,1.0,86,0.00,,,0.01,Wunderground v.1.15,2013-08-08 17:50:00,
2013-08-08 10:55:00,61.3,56.8,30.02,SW,224,0.0,4.0,85,0.00,,,0.01,Wunderground v.1.15,2013-08-08 17:55:00,
2013-08-08 11:00:00,61.8,56.9,30.02,SW,224,0.0,4.0,84,0.00,,,0.01,Wunderground v.1.15,2013-08-08 18:00:00,
2013-08-08 11:10:00,62.3,57.1,30.02,South,180,2.0,6.0,83,0.00,,,0.01,Wunderground v.1.15,2013-08-08 18:10:00,
2013-08-08 11:15:00,62.1,56.9,30.01,South,186,3.0,6.0,83,0.00,,,0.01,Wunderground v.1.15,2013-08-08 18:15:00,
2013-08-08 11:20:00,62.5,56.9,30.01,South,186,2.0,4.0,82,0.00,,,0.01,Wunderground v.1.15,2013-08-08 18:20:00,
2013-08-08 11:25:00,62.4,56.8,30.01,South,185,3.0,4.0,82,0.00,,,0.01,Wunderground v.1.15,2013-08-08 18:25:00,
2013-08-08 11:30:00,62.3,57.1,30.01,South,182,4.0,4.0,83,0.00,,,0.01,Wunderground v.1.15,2013-08-08 18:30:00,
2013-08-08 11:40:00,62.3,57.4,30.01,SSW,205,3.0,6.0,84,0.00,,,0.01,Wunderground v.1.15,2013-08-08 18:40:00,
2013-08-08 11:45:00,62.6,57.4,30.01,SSW,210,4.0,6.0,83,0.00,,,0.01,Wunderground v.1.15,2013-08-08 18:45:00,
2013-08-08 11:50:00,62.5,57.3,30.01,SSW,206,4.0,4.0,83,0.00,,,0.01,Wunderground v.1.15,2013-08-08 18:50:00,
2013-08-08 11:55:00,62.4,56.8,30.01,WSW,252,5.0,8.0,82,0.00,,,0.01,Wunderground v.1.15,2013-08-08 18:55:00,
2013-08-08 12:00:00,62.4,56.8,30.01,West,259,7.0,8.0,82,0.00,,,0.01,Wunderground v.1.15,2013-08-08 19:00:00,
2013-08-08 12:10:00,62.9,57.0,30.01,SSW,209,7.0,7.0,81,0.00,,,0.01,Wunderground v.1.15,2013-08-08 19:10:00,
2013-08-08 12:15:00,63.1,56.5,30.01,SSW,208,8.0,8.0,79,0.00,,,0.01,Wunderground v.1.15,2013-08-08 19:15:00,
2013-08-08 12:20:00,63.1,56.5,30.01,SSW,200,8.0,15.0,79,0.00,,,0.01,Wunderground v.1.15,2013-08-08 19:20:00,
2013-08-08 12:25:00,63.2,56.6,30.01,SW,226,7.0,15.0,79,0.00,,,0.01,Wunderground v.1.15,2013-08-08 19:25:00,
2013-08-08 12:30:00,63.2,56.2,30.01,SSW,212,7.0,10.0,78,0.00,,,0.01,Wunderground v.1.15,2013-08-08 19:30:00,
2013-08-08 12:40:00,63.1,56.1,30.01,WSW,238,9.0,12.0,78,0.00,,,0.01,Wunderground v.1.15,2013-08-08 19:40:00,
2013-08-08 12:45:00,62.7,56.1,30.01,SW,233,9.0,12.0,79,0.00,,,0.01,Wunderground v.1.15,2013-08-08 19:45:00,
2013-08-08 12:50:00,62.5,55.9,30.00,SW,215,9.0,9.0,79,0.00,,,0.01,Wunderground v.1.15,2013-08-08 19:50:00,
2013-08-08 12:55:00,62.8,55.8,30.00,SSW,196,8.0,9.0,78,0.00,,,0.01,Wunderground v.1.15,2013-08-08 19:55:00,
2013-08-08 13:05:00,63.3,56.0,30.00,SSW,192,7.0,8.0,77,0.00,,,0.01,Wunderground v.1.15,2013-08-08 20:05:00,
2013-08-08 13:10:00,63.2,55.9,30.01,SW,223,7.0,7.0,77,0.00,,,0.01,Wunderground v.1.15,2013-08-08 20:10:00,
2013-08-08 13:15:00,63.3,56.0,30.01,South,180,8.0,11.0,77,0.00,,,0.01,Wunderground v.1.15,2013-08-08 20:15:00,
2013-08-08 13:20:00,63.2,55.9,30.01,South,177,9.0,9.0,77,0.00,,,0.01,Wunderground v.1.15,2013-08-08 20:20:00,
2013-08-08 13:30:00,63.3,56.0,30.01,South,186,7.0,11.0,77,0.00,,,0.01,Wunderground v.1.15,2013-08-08 20:30:00,
2013-08-08 13:35:00,63.2,55.9,30.01,SSW,207,7.0,14.0,77,0.00,,,0.01,Wunderground v.1.15,2013-08-08 20:35:00,
2013-08-08 13:40:00,63.4,56.1,30.01,South,180,8.0,8.0,77,0.00,,,0.01,Wunderground v.1.15,2013-08-08 20:40:00,
2013-08-08 13:45:00,63.6,55.9,30.01,South,180,8.0,8.0,76,0.00,,,0.01,Wunderground v.1.15,2013-08-08 20:45:00,
2013-08-08 13:50:00,63.9,56.2,30.00,SSE,163,8.0,8.0,76,0.00,,,0.01,Wunderground v.1.15,2013-08-08 20:50:00,
2013-08-08 14:00:00,64.2,56.1,30.00,SSW,202,8.0,13.0,75,0.00,,,0.01,Wunderground v.1.15,2013-08-08 21:00:00,
2013-08-08 14:05:00,64.5,55.7,30.00,SW,216,9.0,13.0,73,0.00,,,0.01,Wunderground v.1.15,2013-08-08 21:05:00,
2013-08-08 14:10:00,64.3,55.5,30.00,SW,220,10.0,10.0,73,0.00,,,0.01,Wunderground v.1.15,2013-08-08 21:10:00,
2013-08-08 14:15:00,63.8,55.7,30.00,SW,219,10.0,10.0,75,0.00,,,0.01,Wunderground v.1.15,2013-08-08 21:15:00,
2013-08-08 14:20:00,64.5,56.0,30.00,SSW,195,11.0,11.0,74,0.00,,,0.01,Wunderground v.1.15,2013-08-08 21:20:00,
2013-08-08 14:30:00,63.8,55.7,30.00,South,188,9.0,9.0,75,0.00,,,0.01,Wunderground v.1.15,2013-08-08 21:30:00,
2013-08-08 14:35:00,63.6,55.5,30.00,SSW,207,9.0,9.0,75,0.00,,,0.01,Wunderground v.1.15,2013-08-08 21:35:00,
2013-08-08 14:40:00,63.5,55.4,30.00,SW,236,9.0,11.0,75,0.00,,,0.01,Wunderground v.1.15,2013-08-08 21:40:00,
2013-08-08 14:45:00,63.0,55.3,30.01,SSE,159,9.0,11.0,76,0.00,,,0.01,Wunderground v.1.15,2013-08-08 21:45:00,
2013-08-08 14:55:00,61.6,55.0,30.00,SW,230,9.0,13.0,79,0.00,,,0.01,Wunderground v.1.15,2013-08-08 21:55:00,
2013-08-08 15:05:00,61.2,54.6,30.00,SSW,211,9.0,11.0,79,0.00,,,0.01,Wunderground v.1.15,2013-08-08 22:05:00,
2013-08-08 15:10:00,60.7,54.8,30.00,SSW,209,10.0,13.0,81,0.00,,,0.01,Wunderground v.1.15,2013-08-08 22:10:00,
2013-08-08 15:20:00,60.6,54.7,29.99,SSW,208,10.0,14.0,81,0.00,,,0.01,Wunderground v.1.15,2013-08-08 22:20:00,
2013-08-08 15:25:00,60.9,54.7,29.99,SSW,210,10.0,14.0,80,0.00,,,0.01,Wunderground v.1.15,2013-08-08 22:25:00,
2013-08-08 15:30:00,60.9,54.7,29.99,WSW,254,9.0,10.0,80,0.00,,,0.01,Wunderground v.1.15,2013-08-08 22:30:00,
2013-08-08 15:35:00,60.5,54.6,29.99,SSW,195,9.0,14.0,81,0.00,,,0.01,Wunderground v.1.15,2013-08-08 22:35:00,
2013-08-08 15:40:00,60.3,54.4,29.99,SW,223,10.0,10.0,81,0.00,,,0.01,Wunderground v.1.15,2013-08-08 22:40:00,
2013-08-08 15:50:00,60.0,54.2,29.99,SSW,201,10.0,10.0,81,0.00,,,0.01,Wunderground v.1.15,2013-08-08 22:50:00,
2013-08-08 15:55:00,60.9,54.7,29.98,SW,217,10.0,12.0,80,0.00,,,0.01,Wunderground v.1.15,2013-08-08 22:55:00,
2013-08-08 16:10:00,60.4,54.5,29.98,South,176,8.0,8.0,81,0.00,,,0.01,Wunderground v.1.15,2013-08-08 23:10:00,
2013-08-08 16:20:00,60.7,54.8,29.98,SSW,201,8.0,11.0,81,0.00,,,0.01,Wunderground v.1.15,2013-08-08 23:20:00,
2013-08-08 16:30:00,60.0,54.5,29.98,SSW,199,8.0,9.0,82,0.00,,,0.01,Wunderground v.1.15,2013-08-08 23:30:00,
2013-08-08 16:35:00,59.8,54.6,29.98,South,176,8.0,9.0,83,0.00,,,0.01,Wunderground v.1.15,2013-08-08 23:35:00,
2013-08-08 16:40:00,60.3,55.1,29.98,SW,217,9.0,11.0,83,0.00,,,0.01,Wunderground v.1.15,2013-08-08 23:40:00,
2013-08-08 16:45:00,62.3,55.4,29.98,SSW,194,10.0,11.0,78,0.00,,,0.01,Wunderground v.1.15,2013-08-08 23:45:00,
2013-08-08 16:50:00,62.2,54.9,29.98,South,176,11.0,11.0,77,0.00,,,0.01,Wunderground v.1.15,2013-08-08 23:50:00,
2013-08-08 17:00:00,61.0,54.8,29.98,SW,223,9.0,18.0,80,0.00,,,0.01,Wunderground v.1.15,2013-08-09 00:00:00,
2013-08-08 17:05:00,60.8,54.6,29.98,South,190,10.0,18.0,80,0.00,,,0.01,Wunderground v.1.15,2013-08-09 00:05:00,
2013-08-08 17:10:00,60.4,54.5,29.98,SSW,199,11.0,15.0,81,0.00,,,0.01,Wunderground v.1.15,2013-08-09 00:10:00,
2013-08-08 17:20:00,60.4,54.5,29.98,SW,225,12.0,12.0,81,0.00,,,0.01,Wunderground v.1.15,2013-08-09 00:20:00,
2013-08-08 17:25:00,60.2,54.7,29.98,SW,225,11.0,12.0,82,0.00,,,0.01,Wunderground v.1.15,2013-08-09 00:25:00,
2013-08-08 17:35:00,59.4,54.2,29.98,SW,214,12.0,12.0,83,0.00,,,0.01,Wunderground v.1.15,2013-08-09 00:35:00,
2013-08-08 17:45:00,58.9,53.7,29.97,South,181,12.0,12.0,83,0.00,,,0.01,Wunderground v.1.15,2013-08-09 00:45:00,
2013-08-08 17:50:00,58.8,54.0,29.98,WSW,238,12.0,12.0,84,0.00,,,0.01,Wunderground v.1.15,2013-08-09 00:50:00,
2013-08-08 17:55:00,58.7,53.9,29.97,SW,217,11.0,14.0,84,0.00,,,0.01,Wunderground v.1.15,2013-08-09 00:55:00,
2013-08-08 18:00:00,58.6,53.8,29.97,SW,231,12.0,14.0,84,0.00,,,0.01,Wunderground v.1.15,2013-08-09 01:00:00,
2013-08-08 18:05:00,58.6,53.8,29.97,SW,224,12.0,14.0,84,0.00,,,0.01,Wunderground v.1.15,2013-08-09 01:05:00,
2013-08-08 18:15:00,58.6,53.8,29.97,SW,215,10.0,14.0,84,0.00,,,0.01,Wunderground v.1.15,2013-08-09 01:15:00,
2013-08-08 18:25:00,58.4,53.6,29.96,SW,216,10.0,10.0,84,0.00,,,0.01,Wunderground v.1.15,2013-08-09 01:25:00,
2013-08-08 18:30:00,58.2,53.7,29.96,SSW,208,10.0,11.0,85,0.00,,,0.01,Wunderground v.1.15,2013-08-09 01:30:00,
2013-08-08 18:40:00,58.7,53.5,29.96,SW,219,11.0,14.0,83,0.00,,,0.01,Wunderground v.1.15,2013-08-09 01:40:00,
2013-08-08 18:50:00,58.1,53.3,29.96,SSW,206,10.0,10.0,84,0.00,,,0.01,Wunderground v.1.15,2013-08-09 01:50:00,
2013-08-08 19:00:00,57.4,53.2,29.96,SSW,194,10.0,10.0,86,0.00,,,0.01,Wunderground v.1.15,2013-08-09 02:00:00,
2013-08-08 19:10:00,56.7,53.2,29.95,SSW,211,10.0,10.0,88,0.00,,,0.01,Wunderground v.1.15,2013-08-09 02:10:00,
2013-08-08 19:15:00,56.5,53.0,29.95,SSW,212,10.0,14.0,88,0.00,,,0.01,Wunderground v.1.15,2013-08-09 02:15:00,
2013-08-08 19:25:00,56.5,53.0,29.95,SSW,192,10.0,16.0,88,0.00,,,0.01,Wunderground v.1.15,2013-08-09 02:25:00,
2013-08-08 19:30:00,56.6,53.4,29.95,SSW,198,8.0,8.0,89,0.00,,,0.01,Wunderground v.1.15,2013-08-09 02:30:00,
2013-08-08 19:35:00,56.4,53.2,29.95,SSW,207,6.0,8.0,89,0.00,,,0.01,Wunderground v.1.15,2013-08-09 02:35:00,
2013-08-08 19:50:00,55.9,53.0,29.95,SSW,197,7.0,7.0,90,0.00,,,0.01,Wunderground v.1.15,2013-08-09 02:50:00,
2013-08-08 19:55:00,55.8,53.2,29.95,SSW,203,7.0,7.0,91,0.00,,,0.01,Wunderground v.1.15,2013-08-09 02:55:00,
2013-08-08 20:00:00,55.8,53.2,29.95,SSW,202,7.0,7.0,91,0.00,,,0.01,Wunderground v.1.15,2013-08-09 03:00:00,
2013-08-08 20:10:00,55.6,53.0,29.95,SSW,200,7.0,8.0,91,0.00,,,0.01,Wunderground v.1.15,2013-08-09 03:10:00,
2013-08-08 20:15:00,55.5,52.9,29.95,SW,219,7.0,8.0,91,0.00,,,0.01,Wunderground v.1.15,2013-08-09 03:15:00,
2013-08-08 20:20:00,55.4,53.1,29.95,SW,215,7.0,8.0,92,0.00,,,0.01,Wunderground v.1.15,2013-08-09 03:20:00,
2013-08-08 20:25:00,55.3,53.0,29.95,SSW,213,7.0,10.0,92,0.00,,,0.01,Wunderground v.1.15,2013-08-09 03:25:00,
2013-08-08 20:30:00,55.2,52.9,29.95,SW,215,7.0,8.0,92,0.00,,,0.01,Wunderground v.1.15,2013-08-09 03:30:00,
2013-08-08 20:40:00,55.0,52.7,29.95,SSW,209,8.0,11.0,92,0.00,,,0.01,Wunderground v.1.15,2013-08-09 03:40:00,
2013-08-08 20:50:00,54.9,52.9,29.95,SW,216,8.0,8.0,93,0.00,,,0.01,Wunderground v.1.15,2013-08-09 03:50:00,
2013-08-08 20:55:00,54.8,52.8,29.96,SSW,212,7.0,8.0,93,0.00,,,0.01,Wunderground v.1.15,2013-08-09 03:55:00,
2013-08-08 21:05:00,54.6,52.6,29.96,SW,215,7.0,7.0,93,0.00,,,0.01,Wunderground v.1.15,2013-08-09 04:05:00,
2013-08-08 21:10:00,54.6,52.6,29.96,SW,216,6.0,6.0,93,0.00,,,0.01,Wunderground v.1.15,2013-08-09 04:10:00,
2013-08-08 21:15:00,54.5,52.5,29.96,SSW,205,6.0,6.0,93,0.00,,,0.01,Wunderground v.1.15,2013-08-09 04:15:00,
2013-08-08 21:20:00,54.5,52.8,29.96,SSW,201,6.0,9.0,94,0.00,,,0.01,Wunderground v.1.15,2013-08-09 04:20:00,
2013-08-08 21:30:00,54.4,52.7,29.96,SSW,205,7.0,10.0,94,0.00,,,0.01,Wunderground v.1.15,2013-08-09 04:30:00,
2013-08-08 21:35:00,54.4,52.7,29.97,SSW,207,7.0,10.0,94,0.00,,,0.01,Wunderground v.1.15,2013-08-09 04:35:00,
2013-08-08 21:40:00,54.2,52.5,29.96,SSW,200,7.0,8.0,94,0.00,,,0.01,Wunderground v.1.15,2013-08-09 04:40:00,
2013-08-08 21:45:00,54.1,52.4,29.97,SW,215,8.0,8.0,94,0.00,,,0.01,Wunderground v.1.15,2013-08-09 04:45:00,
2013-08-08 21:50:00,54.0,52.3,29.97,SSW,205,7.0,7.0,94,0.00,,,0.01,Wunderground v.1.15,2013-08-09 04:50:00,
2013-08-08 22:00:00,53.9,52.5,29.97,South,186,6.0,6.0,95,0.00,,,0.01,Wunderground v.1.15,2013-08-09 05:00:00,
2013-08-08 22:05:00,53.9,52.5,29.97,SSW,209,6.0,8.0,95,0.00,,,0.01,Wunderground v.1.15,2013-08-09 05:05:00,
2013-08-08 22:10:00,53.9,52.5,29.97,SSW,201,7.0,9.0,95,0.00,,,0.01,Wunderground v.1.15,2013-08-09 05:10:00,
2013-08-08 22:15:00,53.7,52.3,29.97,SW,219,8.0,9.0,95,0.00,,,0.01,Wunderground v.1.15,2013-08-09 05:15:00,
2013-08-08 22:20:00,53.6,52.2,29.97,SSW,212,8.0,8.0,95,0.00,,,0.01,Wunderground v.1.15,2013-08-09 05:20:00,
2013-08-08 22:30:00,53.5,52.1,29.97,SSW,207,5.0,9.0,95,0.00,,,0.01,Wunderground v.1.15,2013-08-09 05:30:00,
2013-08-08 22:35:00,53.4,52.0,29.97,SSW,205,5.0,9.0,95,0.00,,,0.01,Wunderground v.1.15,2013-08-09 05:35:00,
2013-08-08 22:40:00,53.3,51.9,29.97,South,188,5.0,6.0,95,0.00,,,0.01,Wunderground v.1.15,2013-08-09 05:40:00,
2013-08-08 22:45:00,53.3,52.2,29.97,SSW,207,5.0,6.0,96,0.00,,,0.01,Wunderground v.1.15,2013-08-09 05:45:00,
2013-08-08 22:50:00,53.4,52.3,29.97,SSW,198,6.0,7.0,96,0.00,,,0.01,Wunderground v.1.15,2013-08-09 05:50:00,
2013-08-08 23:00:00,53.3,51.9,29.97,SSW,200,4.0,4.0,95,0.00,,,0.01,Wunderground v.1.15,2013-08-09 06:00:00,
2013-08-08 23:05:00,53.2,52.1,29.97,SSW,192,2.0,4.0,96,0.00,,,0.01,Wunderground v.1.15,2013-08-09 06:05:00,
2013-08-08 23:10:00,53.3,52.2,29.96,SSW,193,1.0,1.0,96,0.00,,,0.01,Wunderground v.1.15,2013-08-09 06:10:00,
2013-08-08 23:15:00,53.3,52.2,29.96,SSW,193,1.0,4.0,96,0.00,,,0.01,Wunderground v.1.15,2013-08-09 06:15:00,
2013-08-08 23:20:00,53.4,52.3,29.96,SSW,193,0.0,4.0,96,0.00,,,0.01,Wunderground v.1.15,2013-08-09 06:20:00,
2013-08-08 23:25:00,53.4,52.3,29.96,SSW,193,0.0,4.0,96,0.00,,,0.01,Wunderground v.1.15,2013-08-09 06:25:00,
2013-08-08 23:35:00,53.5,52.4,29.96,SSW,192,1.0,4.0,96,0.00,,,0.01,Wunderground v.1.15,2013-08-09 06:35:00,
2013-08-08 23:40:00,53.5,52.1,29.96,SSW,192,1.0,1.0,95,0.00,,,0.01,Wunderground v.1.15,2013-08-09 06:40:00,
2013-08-08 23:45:00,53.5,52.4,29.96,SSW,192,1.0,4.0,96,0.00,,,0.01,Wunderground v.1.15,2013-08-09 06:45:00,
2013-08-08 23:50:00,53.6,52.5,29.95,SSW,192,1.0,1.0,96,0.00,,,0.01,Wunderground v.1.15,2013-08-09 06:50:00,
2013-08-08 23:55:00,53.6,52.5,29.95,SSW,192,0.0,4.0,96,0.00,,,0.01,Wunderground v.1.15,2013-08-09 06:55:00,